DEDEA EDXW-ZZZZ
Flight info
| Callsign | DEDEA |
|---|---|
| Flight time | N/A |
| Altitude | |
| Route | |
| Aircraft | BE36 |
Departure
| Time | 2026-05-06 16:59 |
|---|---|
| Airport | Westerland Sylt Airport (EDXW) |
Arrival
| Time | N/A |
|---|---|
| Airport | ZZZZ |
| Time | Latitude | Longitude | Altitude | Speed | Heading |
|---|---|---|---|---|---|
| 2026-05-06 16:50 | 54.91231 | 8.32518 | 53 ft | 0 kts | 247° |
| 2026-05-06 16:54 | 54.91229 | 8.32501 | 53 ft | 5 kts | 285° |
| 2026-05-06 16:54 | 54.91250 | 8.32501 | 53 ft | 6 kts | 72° |
| 2026-05-06 16:54 | 54.91209 | 8.32619 | 53 ft | 23 kts | 130° |
| 2026-05-06 16:54 | 54.91095 | 8.32846 | 53 ft | 25 kts | 133° |
| 2026-05-06 16:55 | 54.90979 | 8.33062 | 53 ft | 25 kts | 147° |
| 2026-05-06 16:55 | 54.90832 | 8.33208 | 53 ft | 25 kts | 170° |
| 2026-05-06 16:55 | 54.90662 | 8.33232 | 53 ft | 24 kts | 175° |
| 2026-05-06 16:55 | 54.90496 | 8.33269 | 53 ft | 24 kts | 156° |
| 2026-05-06 16:56 | 54.90358 | 8.33427 | 53 ft | 24 kts | 132° |
| 2026-05-06 16:56 | 54.90277 | 8.33672 | 53 ft | 23 kts | 106° |
| 2026-05-06 16:56 | 54.90250 | 8.33942 | 53 ft | 22 kts | 101° |
| 2026-05-06 16:56 | 54.90246 | 8.34198 | 53 ft | 20 kts | 88° |
| 2026-05-06 16:57 | 54.90294 | 8.34404 | 53 ft | 18 kts | 49° |
| 2026-05-06 16:57 | 54.90418 | 8.34643 | 53 ft | 29 kts | 46° |
| 2026-05-06 16:57 | 54.90539 | 8.34846 | 53 ft | 17 kts | 41° |
| 2026-05-06 16:57 | 54.90563 | 8.34882 | 53 ft | 0 kts | 43° |
| 2026-05-06 16:58 | 54.90565 | 8.34886 | 53 ft | 5 kts | 43° |
| 2026-05-06 16:58 | 54.90625 | 8.34910 | 52 ft | 13 kts | 327° |
| 2026-05-06 16:58 | 54.90884 | 8.34585 | 72 ft | 79 kts | 329° |
| 2026-05-06 16:58 | 54.91384 | 8.33953 | 520 ft | 96 kts | 328° |
| 2026-05-06 16:59 | 54.92003 | 8.33160 | 885 ft | 117 kts | 327° |
| 2026-05-06 16:59 | 54.92655 | 8.32294 | 1379 ft | 126 kts | 329° |
| 2026-05-06 16:59 | 54.93382 | 8.31260 | 1502 ft | 136 kts | 325° |
| 2026-05-06 16:59 | 54.94080 | 8.30129 | 1751 ft | 137 kts | 306° |
| 2026-05-06 17:00 | 54.93957 | 8.28506 | 1754 ft | 162 kts | 227° |
| 2026-05-06 17:00 | 54.92887 | 8.27915 | 1786 ft | 163 kts | 185° |
| 2026-05-06 17:00 | 54.91805 | 8.27633 | 2038 ft | 158 kts | 186° |
| 2026-05-06 17:00 | 54.90695 | 8.27108 | 2024 ft | 169 kts | 196° |
| 2026-05-06 17:01 | 54.89582 | 8.26347 | 1964 ft | 173 kts | 199° |
| 2026-05-06 17:01 | 54.88491 | 8.25580 | 1986 ft | 166 kts | 199° |
| 2026-05-06 17:01 | 54.87462 | 8.24802 | 2072 ft | 159 kts | 212° |
| 2026-05-06 17:01 | 54.86842 | 8.23206 | 1976 ft | 166 kts | 251° |
| 2026-05-06 17:02 | 54.86254 | 8.21761 | 1945 ft | 123 kts | 162° |
| 2026-05-06 17:02 | 54.85461 | 8.21191 | 1687 ft | 146 kts | 239° |
| 2026-05-06 17:02 | 54.84758 | 8.19584 | 1387 ft | 175 kts | 233° |
| 2026-05-06 17:02 | 54.83711 | 8.18737 | 1736 ft | 174 kts | 177° |
| 2026-05-06 17:03 | 54.82491 | 8.18708 | 1956 ft | 175 kts | 179° |
| 2026-05-06 17:03 | 54.81331 | 8.18963 | 2344 ft | 161 kts | 158° |
| 2026-05-06 17:03 | 54.80357 | 8.19751 | 2721 ft | 156 kts | 145° |
| 2026-05-06 17:03 | 54.79358 | 8.20708 | 2710 ft | 171 kts | 145° |
| 2026-05-06 17:04 | 54.78347 | 8.21865 | 2603 ft | 180 kts | 134° |
| 2026-05-06 17:04 | 54.77613 | 8.23634 | 2422 ft | 182 kts | 112° |
| 2026-05-06 17:04 | 54.76795 | 8.25284 | 2478 ft | 179 kts | 145° |
| 2026-05-06 17:04 | 54.75620 | 8.25948 | 2670 ft | 179 kts | 164° |
| 2026-05-06 17:05 | 54.74544 | 8.26688 | 2900 ft | 159 kts | 116° |
| 2026-05-06 17:05 | 54.74626 | 8.28576 | 2538 ft | 176 kts | 64° |
| 2026-05-06 17:05 | 54.75161 | 8.30498 | 2422 ft | 177 kts | 66° |
| 2026-05-06 17:05 | 54.75625 | 8.32427 | 2457 ft | 169 kts | 66° |
| 2026-05-06 17:06 | 54.76033 | 8.34248 | 2688 ft | 156 kts | 71° |
| 2026-05-06 17:06 | 54.76233 | 8.36056 | 2930 ft | 149 kts | 83° |
| 2026-05-06 17:06 | 54.76325 | 8.37830 | 3195 ft | 144 kts | 81° |
| 2026-05-06 17:06 | 54.76473 | 8.39616 | 3231 ft | 155 kts | 81° |
| 2026-05-06 17:07 | 54.76615 | 8.41469 | 3420 ft | 152 kts | 82° |
| 2026-05-06 17:07 | 54.76695 | 8.43267 | 3667 ft | 149 kts | 86° |
| 2026-05-06 17:07 | 54.76688 | 8.45076 | 3804 ft | 152 kts | 91° |
| 2026-05-06 17:07 | 54.76560 | 8.46945 | 3853 ft | 158 kts | 98° |
| 2026-05-06 17:08 | 54.76265 | 8.48763 | 4014 ft | 159 kts | 108° |
| 2026-05-06 17:08 | 54.75760 | 8.50492 | 4125 ft | 161 kts | 120° |
| 2026-05-06 17:08 | 54.75025 | 8.51956 | 4292 ft | 163 kts | 135° |
| 2026-05-06 17:08 | 54.74013 | 8.52935 | 4347 ft | 173 kts | 158° |
| 2026-05-06 17:09 | 54.72799 | 8.53222 | 4385 ft | 180 kts | 179° |
| 2026-05-06 17:09 | 54.71580 | 8.52703 | 4471 ft | 185 kts | 203° |
| 2026-05-06 17:09 | 54.70562 | 8.51291 | 4458 ft | 191 kts | 220° |
| 2026-05-06 17:09 | 54.69447 | 8.50162 | 4660 ft | 180 kts | 198° |
| 2026-05-06 17:10 | 54.68271 | 8.49664 | 4904 ft | 171 kts | 184° |
| 2026-05-06 17:10 | 54.67068 | 8.49508 | 4974 ft | 176 kts | 179° |
| 2026-05-06 17:10 | 54.65844 | 8.49406 | 5058 ft | 176 kts | 180° |
| 2026-05-06 17:10 | 54.64637 | 8.49277 | 5154 ft | 176 kts | 181° |
| 2026-05-06 17:11 | 54.63426 | 8.49325 | 5235 ft | 171 kts | 158° |
| 2026-05-06 17:11 | 54.62554 | 8.50540 | 5315 ft | 162 kts | 114° |
| 2026-05-06 17:11 | 54.62435 | 8.52409 | 5406 ft | 157 kts | 79° |
| 2026-05-06 17:11 | 54.62848 | 8.54109 | 5504 ft | 154 kts | 56° |
| 2026-05-06 17:12 | 54.63487 | 8.55572 | 5608 ft | 152 kts | 54° |
| 2026-05-06 17:12 | 54.64111 | 8.57054 | 5719 ft | 152 kts | 56° |
| 2026-05-06 17:12 | 54.64698 | 8.58587 | 5811 ft | 154 kts | 57° |
| 2026-05-06 17:12 | 54.65276 | 8.60147 | 5926 ft | 153 kts | 58° |
| 2026-05-06 17:13 | 54.65849 | 8.61705 | 6038 ft | 152 kts | 58° |
| 2026-05-06 17:13 | 54.66417 | 8.63248 | 6141 ft | 152 kts | 58° |
| 2026-05-06 17:13 | 54.66980 | 8.64781 | 6161 ft | 157 kts | 58° |
| 2026-05-06 17:13 | 54.67581 | 8.66422 | 6072 ft | 165 kts | 57° |
| 2026-05-06 17:14 | 54.68205 | 8.68121 | 6003 ft | 169 kts | 57° |
| 2026-05-06 17:14 | 54.68836 | 8.69843 | 5923 ft | 170 kts | 57° |
| 2026-05-06 17:14 | 54.69473 | 8.71578 | 5855 ft | 171 kts | 57° |
| 2026-05-06 17:14 | 54.70114 | 8.73330 | 5783 ft | 172 kts | 57° |
| 2026-05-06 17:15 | 54.70748 | 8.75064 | 5710 ft | 172 kts | 57° |
| 2026-05-06 17:15 | 54.71389 | 8.76818 | 5640 ft | 172 kts | 57° |
| 2026-05-06 17:15 | 54.72035 | 8.78596 | 5558 ft | 172 kts | 59° |
| 2026-05-06 17:15 | 54.72243 | 8.80588 | 5482 ft | 177 kts | 98° |
| 2026-05-06 17:16 | 54.71933 | 8.82661 | 5429 ft | 177 kts | 102° |
| 2026-05-06 17:16 | 54.71643 | 8.84739 | 5375 ft | 177 kts | 100° |
| 2026-05-06 17:16 | 54.71374 | 8.86819 | 5310 ft | 177 kts | 99° |
| 2026-05-06 17:16 | 54.71106 | 8.88903 | 5247 ft | 178 kts | 99° |
| 2026-05-06 17:17 | 54.70838 | 8.90984 | 5171 ft | 178 kts | 100° |
| 2026-05-06 17:17 | 54.70568 | 8.93078 | 5113 ft | 176 kts | 100° |
| 2026-05-06 17:17 | 54.70304 | 8.95112 | 5037 ft | 172 kts | 99° |
| 2026-05-06 17:17 | 54.70045 | 8.97113 | 4964 ft | 169 kts | 99° |
| 2026-05-06 17:18 | 54.69790 | 8.99088 | 4894 ft | 168 kts | 100° |
| 2026-05-06 17:18 | 54.69534 | 9.01061 | 4820 ft | 168 kts | 100° |
| 2026-05-06 17:18 | 54.69278 | 9.03030 | 4749 ft | 168 kts | 100° |
| 2026-05-06 17:18 | 54.69022 | 9.04999 | 4689 ft | 168 kts | 99° |
| 2026-05-06 17:19 | 54.68765 | 9.06967 | 4616 ft | 168 kts | 100° |
| 2026-05-06 17:19 | 54.68509 | 9.08933 | 4551 ft | 168 kts | 100° |
| 2026-05-06 17:19 | 54.68251 | 9.10897 | 4476 ft | 168 kts | 100° |
| 2026-05-06 17:19 | 54.67995 | 9.12858 | 4408 ft | 168 kts | 101° |
| 2026-05-06 17:20 | 54.67739 | 9.14824 | 4366 ft | 168 kts | 100° |
| 2026-05-06 17:20 | 54.67480 | 9.16793 | 4304 ft | 168 kts | 101° |
| 2026-05-06 17:20 | 54.67222 | 9.18754 | 4248 ft | 167 kts | 100° |
| 2026-05-06 17:20 | 54.66966 | 9.20682 | 4186 ft | 167 kts | 100° |
| 2026-05-06 17:21 | 54.66709 | 9.22636 | 4105 ft | 167 kts | 100° |
| 2026-05-06 17:21 | 54.66452 | 9.24589 | 4044 ft | 167 kts | 100° |
| 2026-05-06 17:21 | 54.66194 | 9.26544 | 3965 ft | 167 kts | 100° |
| 2026-05-06 17:21 | 54.65935 | 9.28504 | 3879 ft | 167 kts | 100° |
| 2026-05-06 17:22 | 54.65675 | 9.30460 | 3817 ft | 167 kts | 100° |
| 2026-05-06 17:22 | 54.65418 | 9.32409 | 3744 ft | 167 kts | 101° |
| 2026-05-06 17:22 | 54.65071 | 9.34319 | 3666 ft | 169 kts | 117° |
| 2026-05-06 17:22 | 54.64341 | 9.35924 | 3610 ft | 171 kts | 126° |
| 2026-05-06 17:23 | 54.63597 | 9.37526 | 3550 ft | 171 kts | 123° |
| 2026-05-06 17:23 | 54.62882 | 9.39163 | 3474 ft | 171 kts | 122° |
| 2026-05-06 17:23 | 54.62167 | 9.40812 | 3416 ft | 171 kts | 122° |
| 2026-05-06 17:23 | 54.61453 | 9.42459 | 3349 ft | 171 kts | 123° |
| 2026-05-06 17:24 | 54.60739 | 9.44108 | 3291 ft | 172 kts | 122° |
| 2026-05-06 17:24 | 54.60025 | 9.45754 | 3256 ft | 172 kts | 123° |
| 2026-05-06 17:24 | 54.59306 | 9.47408 | 3205 ft | 172 kts | 122° |
| 2026-05-06 17:24 | 54.58591 | 9.49052 | 3167 ft | 171 kts | 122° |
| 2026-05-06 17:25 | 54.57876 | 9.50698 | 3130 ft | 172 kts | 123° |
| 2026-05-06 17:25 | 54.57160 | 9.52342 | 3091 ft | 172 kts | 123° |
| 2026-05-06 17:25 | 54.56441 | 9.53991 | 3033 ft | 172 kts | 123° |
| 2026-05-06 17:25 | 54.55723 | 9.55638 | 2980 ft | 172 kts | 122° |
| 2026-05-06 17:26 | 54.55004 | 9.57285 | 2932 ft | 172 kts | 122° |
| 2026-05-06 17:26 | 54.54287 | 9.58934 | 2867 ft | 172 kts | 122° |
| 2026-05-06 17:26 | 54.53568 | 9.60575 | 2799 ft | 172 kts | 122° |
| 2026-05-06 17:26 | 54.52849 | 9.62221 | 2742 ft | 172 kts | 122° |
| 2026-05-06 17:27 | 54.52130 | 9.63864 | 2689 ft | 172 kts | 123° |
| 2026-05-06 17:27 | 54.51413 | 9.65507 | 2635 ft | 171 kts | 123° |
| 2026-05-06 17:27 | 54.50695 | 9.67144 | 2570 ft | 171 kts | 123° |
| 2026-05-06 17:27 | 54.49979 | 9.68777 | 2546 ft | 170 kts | 122° |
| 2026-05-06 17:28 | 54.49276 | 9.70380 | 2542 ft | 167 kts | 123° |
| 2026-05-06 17:28 | 54.48577 | 9.71975 | 2543 ft | 167 kts | 122° |
| 2026-05-06 17:28 | 54.47877 | 9.73570 | 2539 ft | 168 kts | 123° |
| 2026-05-06 17:28 | 54.47172 | 9.75171 | 2538 ft | 168 kts | 122° |
| 2026-05-06 17:29 | 54.46472 | 9.76766 | 2538 ft | 166 kts | 122° |
| 2026-05-06 17:29 | 54.45780 | 9.78340 | 2538 ft | 164 kts | 122° |
| 2026-05-06 17:29 | 54.45093 | 9.79903 | 2543 ft | 165 kts | 122° |
| 2026-05-06 17:29 | 54.44406 | 9.81459 | 2537 ft | 165 kts | 122° |
| 2026-05-06 17:30 | 54.43712 | 9.83035 | 2537 ft | 165 kts | 122° |
| 2026-05-06 17:30 | 54.43019 | 9.84607 | 2535 ft | 165 kts | 122° |
| 2026-05-06 17:30 | 54.42325 | 9.86180 | 2532 ft | 165 kts | 122° |
| 2026-05-06 17:30 | 54.41630 | 9.87753 | 2534 ft | 165 kts | 122° |
| 2026-05-06 17:31 | 54.40933 | 9.89332 | 2539 ft | 166 kts | 122° |
| 2026-05-06 17:31 | 54.40234 | 9.90914 | 2534 ft | 166 kts | 122° |
| 2026-05-06 17:31 | 54.39533 | 9.92497 | 2533 ft | 167 kts | 122° |
| 2026-05-06 17:31 | 54.38832 | 9.94080 | 2540 ft | 166 kts | 122° |
| 2026-05-06 17:32 | 54.38135 | 9.95654 | 2538 ft | 166 kts | 122° |
| 2026-05-06 17:32 | 54.37434 | 9.97235 | 2534 ft | 166 kts | 122° |
| 2026-05-06 17:32 | 54.36734 | 9.98813 | 2534 ft | 166 kts | 122° |
| 2026-05-06 17:32 | 54.36033 | 10.00393 | 2535 ft | 167 kts | 123° |
| 2026-05-06 17:33 | 54.35330 | 10.01978 | 2537 ft | 168 kts | 123° |
| 2026-05-06 17:33 | 54.34621 | 10.03572 | 2537 ft | 168 kts | 123° |
| 2026-05-06 17:33 | 54.33911 | 10.05170 | 2538 ft | 169 kts | 123° |
| 2026-05-06 17:33 | 54.33198 | 10.06772 | 2545 ft | 168 kts | 122° |
| 2026-05-06 17:34 | 54.32501 | 10.08333 | 2543 ft | 166 kts | 122° |
| 2026-05-06 17:34 | 54.31805 | 10.09897 | 2542 ft | 164 kts | 122° |
| 2026-05-06 17:34 | 54.31112 | 10.11454 | 2543 ft | 164 kts | 122° |
| 2026-05-06 17:34 | 54.30417 | 10.13013 | 2542 ft | 165 kts | 122° |
| 2026-05-06 17:35 | 54.29719 | 10.14575 | 2541 ft | 165 kts | 122° |
| 2026-05-06 17:35 | 54.29024 | 10.16134 | 2548 ft | 165 kts | 122° |
| 2026-05-06 17:35 | 54.28326 | 10.17692 | 2541 ft | 165 kts | 122° |
| 2026-05-06 17:36 | 54.27170 | 10.20279 | 2542 ft | 164 kts | 122° |
| 2026-05-06 17:36 | 54.26475 | 10.21832 | 2543 ft | 164 kts | 122° |
| 2026-05-06 17:36 | 54.25783 | 10.23375 | 2543 ft | 163 kts | 122° |
| 2026-05-06 17:36 | 54.25093 | 10.24914 | 2541 ft | 163 kts | 122° |
| 2026-05-06 17:37 | 54.24402 | 10.26455 | 2538 ft | 164 kts | 122° |
| 2026-05-06 17:37 | 54.23708 | 10.28003 | 2537 ft | 164 kts | 122° |
| 2026-05-06 17:37 | 54.23010 | 10.29557 | 2546 ft | 165 kts | 122° |
| 2026-05-06 17:37 | 54.22311 | 10.31112 | 2535 ft | 165 kts | 122° |
| 2026-05-06 17:38 | 54.21613 | 10.32661 | 2534 ft | 164 kts | 122° |
| 2026-05-06 17:38 | 54.20918 | 10.34209 | 2535 ft | 165 kts | 122° |
| 2026-05-06 17:38 | 54.20220 | 10.35763 | 2531 ft | 165 kts | 122° |
| 2026-05-06 17:38 | 54.19640 | 10.37415 | 2528 ft | 160 kts | 109° |
| 2026-05-06 17:39 | 54.18915 | 10.38902 | 2530 ft | 164 kts | 126° |
| 2026-05-06 17:39 | 54.18491 | 10.40613 | 2526 ft | 156 kts | 97° |
| 2026-05-06 17:39 | 54.18233 | 10.42411 | 2527 ft | 158 kts | 107° |
| 2026-05-06 17:39 | 54.18064 | 10.44224 | 2527 ft | 154 kts | 88° |
| 2026-05-06 17:40 | 54.18046 | 10.46064 | 2527 ft | 156 kts | 88° |
| 2026-05-06 17:40 | 54.18027 | 10.47919 | 2530 ft | 157 kts | 88° |
| 2026-05-06 17:40 | 54.18010 | 10.49782 | 2530 ft | 157 kts | 87° |
| 2026-05-06 17:40 | 54.17990 | 10.51640 | 2529 ft | 156 kts | 88° |
| 2026-05-06 17:41 | 54.17964 | 10.53495 | 2529 ft | 156 kts | 87° |
| 2026-05-06 17:41 | 54.17935 | 10.55339 | 2534 ft | 156 kts | 88° |
| 2026-05-06 17:41 | 54.17911 | 10.57196 | 2533 ft | 156 kts | 88° |
| 2026-05-06 17:41 | 54.17894 | 10.59027 | 2533 ft | 156 kts | 88° |
| 2026-05-06 17:42 | 54.17879 | 10.60889 | 2531 ft | 156 kts | 87° |
| 2026-05-06 17:42 | 54.17856 | 10.62744 | 2538 ft | 156 kts | 88° |
| 2026-05-06 17:42 | 54.17832 | 10.64601 | 2529 ft | 157 kts | 88° |
| 2026-05-06 17:42 | 54.17823 | 10.66456 | 2527 ft | 156 kts | 88° |
| 2026-05-06 17:43 | 54.17815 | 10.68299 | 2529 ft | 154 kts | 88° |
| 2026-05-06 17:43 | 54.17811 | 10.70126 | 2535 ft | 154 kts | 87° |
| 2026-05-06 17:43 | 54.17805 | 10.71965 | 2535 ft | 155 kts | 88° |
| 2026-05-06 17:43 | 54.17799 | 10.73808 | 2535 ft | 155 kts | 88° |
| 2026-05-06 17:44 | 54.17794 | 10.75653 | 2533 ft | 155 kts | 88° |
| 2026-05-06 17:44 | 54.17789 | 10.77484 | 2534 ft | 154 kts | 88° |
| 2026-05-06 17:44 | 54.17785 | 10.79310 | 2534 ft | 153 kts | 88° |
| 2026-05-06 17:44 | 54.17786 | 10.81122 | 2534 ft | 153 kts | 88° |
| 2026-05-06 17:45 | 54.17793 | 10.82949 | 2532 ft | 154 kts | 88° |
| 2026-05-06 17:45 | 54.17800 | 10.84775 | 2533 ft | 154 kts | 87° |
| 2026-05-06 17:45 | 54.17795 | 10.86603 | 2535 ft | 154 kts | 87° |
| 2026-05-06 17:45 | 54.17790 | 10.88433 | 2535 ft | 155 kts | 88° |
| 2026-05-06 17:46 | 54.17788 | 10.90252 | 2531 ft | 155 kts | 87° |
| 2026-05-06 17:46 | 54.17785 | 10.92122 | 2535 ft | 156 kts | 88° |
| 2026-05-06 17:46 | 54.17782 | 10.93996 | 2486 ft | 159 kts | 88° |
| 2026-05-06 17:46 | 54.17777 | 10.95849 | 2483 ft | 157 kts | 88° |
| 2026-05-06 17:47 | 54.17772 | 10.97722 | 2404 ft | 160 kts | 88° |
| 2026-05-06 17:47 | 54.17766 | 10.99638 | 2299 ft | 162 kts | 88° |
| 2026-05-06 17:47 | 54.17764 | 11.01573 | 2209 ft | 163 kts | 88° |
| 2026-05-06 17:47 | 54.17764 | 11.03514 | 1928 ft | 155 kts | 88° |
| 2026-05-06 17:48 | 54.17776 | 11.05179 | 1599 ft | 136 kts | 82° |
| 2026-05-06 17:48 | 54.17925 | 11.06765 | 1306 ft | 136 kts | 78° |
| 2026-05-06 17:48 | 54.18210 | 11.08310 | 1004 ft | 138 kts | 63° |
| 2026-05-06 17:48 | 54.18775 | 11.09537 | 968 ft | 127 kts | 41° |
| 2026-05-06 17:49 | 54.19517 | 11.10237 | 966 ft | 122 kts | 15° |
| 2026-05-06 17:49 | 54.20361 | 11.10223 | 965 ft | 122 kts | 357° |
| 2026-05-06 17:49 | 54.21186 | 11.09971 | 965 ft | 120 kts | 356° |
| 2026-05-06 17:49 | 54.22004 | 11.09711 | 967 ft | 120 kts | 356° |
| 2026-05-06 17:50 | 54.22825 | 11.09450 | 974 ft | 119 kts | 356° |
| 2026-05-06 17:50 | 54.23637 | 11.09196 | 975 ft | 118 kts | 356° |
| 2026-05-06 17:50 | 54.24448 | 11.08931 | 976 ft | 119 kts | 357° |
| 2026-05-06 17:50 | 54.25278 | 11.08655 | 975 ft | 123 kts | 356° |
| 2026-05-06 17:51 | 54.26030 | 11.07991 | 998 ft | 135 kts | 313° |
| 2026-05-06 17:51 | 54.26165 | 11.06345 | 864 ft | 150 kts | 266° |
| 2026-05-06 17:51 | 54.26051 | 11.04627 | 934 ft | 142 kts | 263° |
| 2026-05-06 17:51 | 54.25910 | 11.03198 | 828 ft | 106 kts | 259° |
| 2026-05-06 17:52 | 54.25733 | 11.02080 | 609 ft | 88 kts | 240° |
| 2026-05-06 17:52 | 54.25375 | 11.01310 | 367 ft | 78 kts | 210° |
| 2026-05-06 17:52 | 54.24997 | 11.00669 | 859 ft | 108 kts | 231° |
| 2026-05-06 17:52 | 54.24484 | 11.00388 | 565 ft | 77 kts | 124° |
| 2026-05-06 17:53 | 54.24419 | 11.01186 | 260 ft | 68 kts | 85° |
| 2026-05-06 17:53 | 54.24416 | 11.01967 | 38 ft | 65 kts | 86° |